sensor_id;sensor_type;location;lat;lon;timestamp;pressure;altitude;pressure_sealevel;temperature;humidity
65276;BME280;51875;49.994;14.052;2023-04-07T00:00:11;98521.38;;;-0.66;79.86
65276;BME280;51875;49.994;14.052;2023-04-07T00:01:42;98539.41;;;-0.64;80.33
65276;BME280;51875;49.994;14.052;2023-04-07T00:02:58;98532.50;;;-0.67;79.73
65276;BME280;51875;49.994;14.052;2023-04-07T00:04:16;98529.91;;;-0.68;79.08
65276;BME280;51875;49.994;14.052;2023-04-07T00:05:32;98533.97;;;-0.78;80.65
65276;BME280;51875;49.994;14.052;2023-04-07T00:06:47;98532.53;;;-0.65;80.03
65276;BME280;51875;49.994;14.052;2023-04-07T00:08:03;98530.84;;;-0.63;79.47
65276;BME280;51875;49.994;14.052;2023-04-07T00:09:18;98522.28;;;-0.62;79.70
65276;BME280;51875;49.994;14.052;2023-04-07T00:10:34;98520.47;;;-0.68;81.07
65276;BME280;51875;49.994;14.052;2023-04-07T00:11:50;98530.75;;;-0.68;82.48
65276;BME280;51875;49.994;14.052;2023-04-07T00:13:07;98526.41;;;-0.72;83.75
65276;BME280;51875;49.994;14.052;2023-04-07T00:14:22;98525.38;;;-0.82;84.67
65276;BME280;51875;49.994;14.052;2023-04-07T00:15:37;98525.09;;;-0.97;87.37
65276;BME280;51875;49.994;14.052;2023-04-07T00:16:53;98525.94;;;-0.97;87.41
65276;BME280;51875;49.994;14.052;2023-04-07T00:18:09;98523.25;;;-1.03;88.05
65276;BME280;51875;49.994;14.052;2023-04-07T00:19:24;98528.28;;;-1.08;89.66
65276;BME280;51875;49.994;14.052;2023-04-07T00:20:40;98529.25;;;-1.03;89.67
65276;BME280;51875;49.994;14.052;2023-04-07T00:21:56;98529.50;;;-0.90;88.54
65276;BME280;51875;49.994;14.052;2023-04-07T00:23:11;98522.41;;;-1.02;89.39
65276;BME280;51875;49.994;14.052;2023-04-07T00:24:27;98520.84;;;-0.95;88.24
65276;BME280;51875;49.994;14.052;2023-04-07T00:25:43;98524.84;;;-1.10;89.70
65276;BME280;51875;49.994;14.052;2023-04-07T00:26:58;98518.84;;;-1.09;88.71
65276;BME280;51875;49.994;14.052;2023-04-07T00:28:14;98523.16;;;-1.08;87.85
65276;BME280;51875;49.994;14.052;2023-04-07T00:29:29;98520.53;;;-1.11;86.74
65276;BME280;51875;49.994;14.052;2023-04-07T00:30:45;98522.25;;;-1.10;86.88
65276;BME280;51875;49.994;14.052;2023-04-07T00:32:00;98523.91;;;-1.12;85.80
65276;BME280;51875;49.994;14.052;2023-04-07T00:33:16;98521.47;;;-1.06;86.43
65276;BME280;51875;49.994;14.052;2023-04-07T00:34:32;98520.84;;;-0.95;85.74
65276;BME280;51875;49.994;14.052;2023-04-07T00:35:47;98516.59;;;-0.92;86.13
65276;BME280;51875;49.994;14.052;2023-04-07T00:37:03;98518.34;;;-0.91;85.49
65276;BME280;51875;49.994;14.052;2023-04-07T00:38:20;98513.22;;;-0.91;83.94
65276;BME280;51875;49.994;14.052;2023-04-07T00:39:36;98517.53;;;-0.90;83.79
65276;BME280;51875;49.994;14.052;2023-04-07T00:40:58;98512.97;;;-1.02;85.08
65276;BME280;51875;49.994;14.052;2023-04-07T00:42:14;98509.56;;;-1.02;84.62
65276;BME280;51875;49.994;14.052;2023-04-07T00:43:29;98510.47;;;-0.98;83.09
65276;BME280;51875;49.994;14.052;2023-04-07T00:44:45;98502.75;;;-0.98;83.80
65276;BME280;51875;49.994;14.052;2023-04-07T00:46:01;98504.97;;;-1.17;84.93
65276;BME280;51875;49.994;14.052;2023-04-07T00:47:16;98503.41;;;-1.10;84.05
65276;BME280;51875;49.994;14.052;2023-04-07T00:48:32;98502.75;;;-1.00;83.54
65276;BME280;51875;49.994;14.052;2023-04-07T00:49:47;98498.53;;;-0.96;83.45
65276;BME280;51875;49.994;14.052;2023-04-07T00:51:04;98496.78;;;-0.99;83.65
65276;BME280;51875;49.994;14.052;2023-04-07T00:52:20;98498.34;;;-1.06;84.16
65276;BME280;51875;49.994;14.052;2023-04-07T00:53:43;98490.75;;;-1.00;85.35
65276;BME280;51875;49.994;14.052;2023-04-07T00:54:59;98495.88;;;-1.00;85.14
65276;BME280;51875;49.994;14.052;2023-04-07T00:56:14;98488.88;;;-1.08;84.58
65276;BME280;51875;49.994;14.052;2023-04-07T00:57:30;98489.63;;;-1.14;84.58
65276;BME280;51875;49.994;14.052;2023-04-07T00:58:46;98487.09;;;-1.12;85.88
65276;BME280;51875;49.994;14.052;2023-04-07T01:00:02;98486.09;;;-1.19;85.27
65276;BME280;51875;49.994;14.052;2023-04-07T01:01:21;98487.84;;;-1.18;85.25
65276;BME280;51875;49.994;14.052;2023-04-07T01:02:45;98486.31;;;-1.08;84.93
65276;BME280;51875;49.994;14.052;2023-04-07T01:04:12;98485.34;;;-1.14;86.49
65276;BME280;51875;49.994;14.052;2023-04-07T01:05:41;98487.19;;;-1.06;85.76
65276;BME280;51875;49.994;14.052;2023-04-07T01:07:03;98482.94;;;-1.06;87.20
65276;BME280;51875;49.994;14.052;2023-04-07T01:08:25;98481.41;;;-0.97;86.29
65276;BME280;51875;49.994;14.052;2023-04-07T01:09:57;98493.41;;;-0.96;87.66
65276;BME280;51875;49.994;14.052;2023-04-07T01:11:31;98486.59;;;-0.94;86.41
65276;BME280;51875;49.994;14.052;2023-04-07T01:13:05;98485.75;;;-0.92;87.08
65276;BME280;51875;49.994;14.052;2023-04-07T01:14:22;98483.31;;;-0.86;86.57
65276;BME280;51875;49.994;14.052;2023-04-07T01:15:39;98481.69;;;-0.82;85.86
65276;BME280;51875;49.994;14.052;2023-04-07T01:16:56;98484.25;;;-0.80;85.91
65276;BME280;51875;49.994;14.052;2023-04-07T01:18:26;98480.84;;;-0.79;84.85
65276;BME280;51875;49.994;14.052;2023-04-07T01:19:55;98474.84;;;-0.78;84.38
65276;BME280;51875;49.994;14.052;2023-04-07T01:21:13;98477.59;;;-0.69;84.42
65276;BME280;51875;49.994;14.052;2023-04-07T01:22:41;98473.25;;;-0.72;83.61
65276;BME280;51875;49.994;14.052;2023-04-07T01:29:35;98470.63;;;-0.76;82.03
65276;BME280;51875;49.994;14.052;2023-04-07T01:30:53;98473.91;;;-0.83;82.24
65276;BME280;51875;49.994;14.052;2023-04-07T01:32:10;98474.34;;;-1.08;84.18
65276;BME280;51875;49.994;14.052;2023-04-07T01:33:28;98472.00;;;-0.95;84.96
65276;BME280;51875;49.994;14.052;2023-04-07T01:34:48;98475.41;;;-0.95;83.78
65276;BME280;51875;49.994;14.052;2023-04-07T01:36:06;98475.63;;;-0.84;83.48
65276;BME280;51875;49.994;14.052;2023-04-07T01:37:24;98477.06;;;-0.98;83.82
65276;BME280;51875;49.994;14.052;2023-04-07T01:38:42;98468.50;;;-0.99;83.59
65276;BME280;51875;49.994;14.052;2023-04-07T01:39:58;98467.03;;;-1.31;87.63
65276;BME280;51875;49.994;14.052;2023-04-07T01:41:14;98472.31;;;-1.24;87.69
65276;BME280;51875;49.994;14.052;2023-04-07T01:42:31;98475.06;;;-1.58;90.43
65276;BME280;51875;49.994;14.052;2023-04-07T01:43:47;98473.44;;;-1.53;91.76
65276;BME280;51875;49.994;14.052;2023-04-07T01:45:04;98479.44;;;-1.52;90.94
65276;BME280;51875;49.994;14.052;2023-04-07T01:46:21;98460.69;;;-1.48;92.00
65276;BME280;51875;49.994;14.052;2023-04-07T01:47:37;98467.59;;;-1.46;92.30
65276;BME280;51875;49.994;14.052;2023-04-07T01:48:54;98470.88;;;-1.53;92.10
65276;BME280;51875;49.994;14.052;2023-04-07T01:50:11;98473.22;;;-1.62;93.61
65276;BME280;51875;49.994;14.052;2023-04-07T01:51:27;98464.69;;;-1.61;95.77
65276;BME280;51875;49.994;14.052;2023-04-07T01:52:44;98467.34;;;-1.58;95.73
65276;BME280;51875;49.994;14.052;2023-04-07T01:54:01;98466.72;;;-1.46;94.72
65276;BME280;51875;49.994;14.052;2023-04-07T01:55:17;98468.50;;;-1.44;92.28
65276;BME280;51875;49.994;14.052;2023-04-07T01:56:33;98464.50;;;-1.28;90.97
65276;BME280;51875;49.994;14.052;2023-04-07T01:57:48;98465.44;;;-1.24;89.65
65276;BME280;51875;49.994;14.052;2023-04-07T01:59:04;98463.81;;;-1.20;88.19
65276;BME280;51875;49.994;14.052;2023-04-07T02:00:20;98460.31;;;-1.25;88.19
65276;BME280;51875;49.994;14.052;2023-04-07T02:01:36;98457.63;;;-1.30;88.11
65276;BME280;51875;49.994;14.052;2023-04-07T02:02:54;98460.41;;;-1.19;87.49
65276;BME280;51875;49.994;14.052;2023-04-07T02:04:21;98453.63;;;-1.16;87.92
65276;BME280;51875;49.994;14.052;2023-04-07T02:05:40;98456.69;;;-1.34;87.38
65276;BME280;51875;49.994;14.052;2023-04-07T02:07:04;98457.50;;;-1.38;88.35
65276;BME280;51875;49.994;14.052;2023-04-07T02:08:23;98456.25;;;-1.56;89.27
65276;BME280;51875;49.994;14.052;2023-04-07T02:09:42;98456.78;;;-1.72;92.21
65276;BME280;51875;49.994;14.052;2023-04-07T02:10:58;98453.50;;;-1.65;91.84
65276;BME280;51875;49.994;14.052;2023-04-07T02:12:15;98452.69;;;-1.64;91.41
65276;BME280;51875;49.994;14.052;2023-04-07T02:13:33;98451.22;;;-1.52;90.91
65276;BME280;51875;49.994;14.052;2023-04-07T02:14:52;98459.34;;;-1.72;92.88
65276;BME280;51875;49.994;14.052;2023-04-07T02:16:09;98462.47;;;-1.86;93.82
65276;BME280;51875;49.994;14.052;2023-04-07T02:17:26;98456.91;;;-1.66;92.10
65276;BME280;51875;49.994;14.052;2023-04-07T02:18:44;98456.00;;;-1.68;92.08
65276;BME280;51875;49.994;14.052;2023-04-07T02:20:02;98445.72;;;-1.68;93.42
65276;BME280;51875;49.994;14.052;2023-04-07T02:21:18;98451.06;;;-1.59;92.53
65276;BME280;51875;49.994;14.052;2023-04-07T02:22:35;98445.81;;;-1.63;91.63
65276;BME280;51875;49.994;14.052;2023-04-07T02:23:51;98444.00;;;-1.69;94.45
65276;BME280;51875;49.994;14.052;2023-04-07T02:25:27;98445.50;;;-1.79;94.98
65276;BME280;51875;49.994;14.052;2023-04-07T02:26:43;98447.81;;;-1.91;99.33
65276;BME280;51875;49.994;14.052;2023-04-07T02:27:59;98446.41;;;-1.77;98.86
65276;BME280;51875;49.994;14.052;2023-04-07T02:29:15;98446.41;;;-1.77;100.00
65276;BME280;51875;49.994;14.052;2023-04-07T02:30:31;98445.72;;;-1.68;98.78
65276;BME280;51875;49.994;14.052;2023-04-07T02:31:47;98441.53;;;-1.64;97.31
65276;BME280;51875;49.994;14.052;2023-04-07T02:33:02;98444.28;;;-1.55;96.22
65276;BME280;51875;49.994;14.052;2023-04-07T02:34:18;98448.63;;;-1.52;95.07
65276;BME280;51875;49.994;14.052;2023-04-07T02:35:34;98445.06;;;-1.59;97.09
65276;BME280;51875;49.994;14.052;2023-04-07T02:36:49;98444.19;;;-1.60;98.77
65276;BME280;51875;49.994;14.052;2023-04-07T02:38:05;98440.72;;;-1.62;97.22
65276;BME280;51875;49.994;14.052;2023-04-07T02:39:20;98445.88;;;-1.62;97.28
65276;BME280;51875;49.994;14.052;2023-04-07T02:40:36;98449.78;;;-1.38;93.85
65276;BME280;51875;49.994;14.052;2023-04-07T02:41:52;98440.41;;;-1.34;91.57
65276;BME280;51875;49.994;14.052;2023-04-07T02:43:07;98443.81;;;-1.35;89.47
65276;BME280;51875;49.994;14.052;2023-04-07T02:44:22;98443.34;;;-1.59;90.13
65276;BME280;51875;49.994;14.052;2023-04-07T02:45:38;98445.78;;;-1.66;90.58
65276;BME280;51875;49.994;14.052;2023-04-07T02:46:54;98446.50;;;-1.74;91.92
65276;BME280;51875;49.994;14.052;2023-04-07T02:48:09;98440.78;;;-1.60;91.97
65276;BME280;51875;49.994;14.052;2023-04-07T02:49:25;98452.94;;;-1.91;98.24
65276;BME280;51875;49.994;14.052;2023-04-07T02:50:41;98450.47;;;-1.88;99.01
65276;BME280;51875;49.994;14.052;2023-04-07T02:51:56;98446.38;;;-1.78;97.92
65276;BME280;51875;49.994;14.052;2023-04-07T02:53:12;98442.84;;;-1.83;98.70
65276;BME280;51875;49.994;14.052;2023-04-07T02:54:28;98443.66;;;-1.85;98.84
65276;BME280;51875;49.994;14.052;2023-04-07T02:55:43;98437.06;;;-1.73;98.88
65276;BME280;51875;49.994;14.052;2023-04-07T02:56:59;98436.28;;;-1.69;99.39
65276;BME280;51875;49.994;14.052;2023-04-07T02:58:15;98436.22;;;-1.72;99.63
65276;BME280;51875;49.994;14.052;2023-04-07T02:59:30;98436.88;;;-1.82;100.00
65276;BME280;51875;49.994;14.052;2023-04-07T03:00:47;98437.13;;;-1.70;100.00
65276;BME280;51875;49.994;14.052;2023-04-07T03:02:03;98431.88;;;-1.76;100.00
65276;BME280;51875;49.994;14.052;2023-04-07T03:03:18;98435.25;;;-1.79;100.00
65276;BME280;51875;49.994;14.052;2023-04-07T03:04:34;98438.75;;;-1.75;100.00
65276;BME280;51875;49.994;14.052;2023-04-07T03:05:50;98432.88;;;-1.69;100.00
65276;BME280;51875;49.994;14.052;2023-04-07T03:07:06;98434.66;;;-1.65;100.00
65276;BME280;51875;49.994;14.052;2023-04-07T03:08:21;98440.00;;;-1.56;100.00
65276;BME280;51875;49.994;14.052;2023-04-07T03:09:37;98441.09;;;-1.45;100.00
65276;BME280;51875;49.994;14.052;2023-04-07T03:10:52;98433.63;;;-1.32;100.00
65276;BME280;51875;49.994;14.052;2023-04-07T03:12:08;98433.88;;;-1.18;99.81
65276;BME280;51875;49.994;14.052;2023-04-07T03:13:23;98429.78;;;-1.08;99.72
65276;BME280;51875;49.994;14.052;2023-04-07T03:14:39;98434.13;;;-1.06;100.00
65276;BME280;51875;49.994;14.052;2023-04-07T03:15:56;98437.38;;;-1.13;97.50
65276;BME280;51875;49.994;14.052;2023-04-07T03:17:11;98433.97;;;-1.14;99.06
65276;BME280;51875;49.994;14.052;2023-04-07T03:18:27;98434.63;;;-1.25;100.00
65276;BME280;51875;49.994;14.052;2023-04-07T03:19:42;98437.47;;;-1.10;100.00
65276;BME280;51875;49.994;14.052;2023-04-07T03:20:58;98432.47;;;-1.01;100.00
65276;BME280;51875;49.994;14.052;2023-04-07T03:22:13;98430.59;;;-1.11;100.00
65276;BME280;51875;49.994;14.052;2023-04-07T03:23:29;98441.44;;;-1.26;100.00
65276;BME280;51875;49.994;14.052;2023-04-07T03:24:45;98430.38;;;-1.22;100.00
65276;BME280;51875;49.994;14.052;2023-04-07T03:26:00;98438.97;;;-1.21;100.00
65276;BME280;51875;49.994;14.052;2023-04-07T03:27:16;98427.47;;;-0.94;100.00
65276;BME280;51875;49.994;14.052;2023-04-07T03:28:32;98434.28;;;-0.96;100.00
65276;BME280;51875;49.994;14.052;2023-04-07T03:29:48;98425.78;;;-0.92;100.00
65276;BME280;51875;49.994;14.052;2023-04-07T03:31:05;98428.94;;;-1.09;100.00
65276;BME280;51875;49.994;14.052;2023-04-07T03:32:21;98431.66;;;-1.00;100.00
65276;BME280;51875;49.994;14.052;2023-04-07T03:33:36;98419.16;;;-0.79;100.00
65276;BME280;51875;49.994;14.052;2023-04-07T03:34:52;98422.78;;;-0.68;100.00
65276;BME280;51875;49.994;14.052;2023-04-07T03:36:08;98421.91;;;-0.68;100.00
65276;BME280;51875;49.994;14.052;2023-04-07T03:37:23;98426.22;;;-0.67;100.00
65276;BME280;51875;49.994;14.052;2023-04-07T03:38:39;98422.81;;;-0.65;100.00
65276;BME280;51875;49.994;14.052;2023-04-07T03:39:55;98423.31;;;-0.86;100.00
65276;BME280;51875;49.994;14.052;2023-04-07T03:41:10;98427.81;;;-0.73;100.00
65276;BME280;51875;49.994;14.052;2023-04-07T03:42:26;98424.41;;;-0.73;100.00
65276;BME280;51875;49.994;14.052;2023-04-07T03:43:41;98421.25;;;-0.57;100.00
65276;BME280;51875;49.994;14.052;2023-04-07T03:44:57;98425.22;;;-0.76;100.00
65276;BME280;51875;49.994;14.052;2023-04-07T03:46:13;98418.34;;;-0.77;100.00
65276;BME280;51875;49.994;14.052;2023-04-07T03:47:28;98416.56;;;-0.81;100.00
65276;BME280;51875;49.994;14.052;2023-04-07T03:48:44;98419.94;;;-0.83;100.00
65276;BME280;51875;49.994;14.052;2023-04-07T03:49:59;98416.44;;;-0.87;100.00
65276;BME280;51875;49.994;14.052;2023-04-07T03:51:15;98415.91;;;-0.69;100.00
65276;BME280;51875;49.994;14.052;2023-04-07T03:52:31;98418.50;;;-0.66;100.00
65276;BME280;51875;49.994;14.052;2023-04-07T03:53:47;98409.03;;;-0.70;100.00
65276;BME280;51875;49.994;14.052;2023-04-07T03:55:02;98410.25;;;-0.48;100.00
65276;BME280;51875;49.994;14.052;2023-04-07T03:56:18;98406.28;;;-0.81;100.00
65276;BME280;51875;49.994;14.052;2023-04-07T03:57:34;98414.84;;;-0.82;100.00
65276;BME280;51875;49.994;14.052;2023-04-07T03:58:50;98409.03;;;-0.70;100.00
65276;BME280;51875;49.994;14.052;2023-04-07T04:00:06;98404.03;;;-0.61;100.00
65276;BME280;51875;49.994;14.052;2023-04-07T04:01:22;98406.50;;;-0.68;100.00
65276;BME280;51875;49.994;14.052;2023-04-07T04:02:38;98410.16;;;-0.54;100.00
65276;BME280;51875;49.994;14.052;2023-04-07T04:03:53;98411.94;;;-0.50;100.00
65276;BME280;51875;49.994;14.052;2023-04-07T04:05:09;98408.34;;;-0.60;100.00
65276;BME280;51875;49.994;14.052;2023-04-07T04:06:25;98406.59;;;-0.62;100.00
65276;BME280;51875;49.994;14.052;2023-04-07T04:07:41;98408.97;;;-0.73;100.00
65276;BME280;51875;49.994;14.052;2023-04-07T04:08:57;98406.63;;;-0.59;100.00
65276;BME280;51875;49.994;14.052;2023-04-07T04:10:12;98412.72;;;-0.54;100.00
65276;BME280;51875;49.994;14.052;2023-04-07T04:11:28;98410.25;;;-0.48;100.00
65276;BME280;51875;49.994;14.052;2023-04-07T04:12:44;98411.00;;;-0.55;100.00
65276;BME280;51875;49.994;14.052;2023-04-07T04:14:00;98410.13;;;-0.55;100.00
65276;BME280;51875;49.994;14.052;2023-04-07T04:15:15;98413.69;;;-0.46;100.00
65276;BME280;51875;49.994;14.052;2023-04-07T04:16:31;98417.94;;;-0.48;100.00
65276;BME280;51875;49.994;14.052;2023-04-07T04:17:47;98415.31;;;-0.54;100.00
65276;BME280;51875;49.994;14.052;2023-04-07T04:19:02;98413.38;;;-0.67;100.00
65276;BME280;51875;49.994;14.052;2023-04-07T04:20:18;98409.41;;;-0.47;100.00
65276;BME280;51875;49.994;14.052;2023-04-07T04:21:33;98413.66;;;-0.49;100.00
65276;BME280;51875;49.994;14.052;2023-04-07T04:22:49;98411.75;;;-0.61;100.00
65276;BME280;51875;49.994;14.052;2023-04-07T04:24:05;98408.53;;;-0.47;100.00
65276;BME280;51875;49.994;14.052;2023-04-07T04:25:20;98412.84;;;-0.45;100.00
65276;BME280;51875;49.994;14.052;2023-04-07T04:26:36;98413.72;;;-0.43;100.00
65276;BME280;51875;49.994;14.052;2023-04-07T04:27:52;98412.31;;;-0.25;100.00
65276;BME280;51875;49.994;14.052;2023-04-07T04:29:07;98414.91;;;-0.22;100.00
65276;BME280;51875;49.994;14.052;2023-04-07T04:30:22;98412.31;;;-0.25;100.00
65276;BME280;51875;49.994;14.052;2023-04-07T04:31:38;98414.06;;;-0.21;99.48
65276;BME280;51875;49.994;14.052;2023-04-07T04:32:54;98411.50;;;-0.21;98.88
65276;BME280;51875;49.994;14.052;2023-04-07T04:34:09;98414.00;;;-0.27;97.55
65276;BME280;51875;49.994;14.052;2023-04-07T04:35:25;98409.34;;;-0.50;100.00
65276;BME280;51875;49.994;14.052;2023-04-07T04:36:41;98416.78;;;-0.67;100.00
65276;BME280;51875;49.994;14.052;2023-04-07T04:37:56;98411.75;;;-0.61;100.00
65276;BME280;51875;49.994;14.052;2023-04-07T04:39:12;98412.13;;;-0.37;99.96
65276;BME280;51875;49.994;14.052;2023-04-07T04:40:28;98408.78;;;-0.30;99.96
65276;BME280;51875;49.994;14.052;2023-04-07T04:41:44;98408.63;;;-0.41;100.00
65276;BME280;51875;49.994;14.052;2023-04-07T04:43:00;98409.66;;;-0.30;98.94
65276;BME280;51875;49.994;14.052;2023-04-07T04:44:16;98408.69;;;-0.36;99.30
65276;BME280;51875;49.994;14.052;2023-04-07T04:45:32;98407.91;;;-0.34;99.01
65276;BME280;51875;49.994;14.052;2023-04-07T04:46:47;98409.66;;;-0.30;98.67
65276;BME280;51875;49.994;14.052;2023-04-07T04:48:03;98410.47;;;-0.32;99.86
65276;BME280;51875;49.994;14.052;2023-04-07T04:49:19;98403.75;;;-0.24;99.89
65276;BME280;51875;49.994;14.052;2023-04-07T04:50:34;98408.91;;;-0.24;100.00
65276;BME280;51875;49.994;14.052;2023-04-07T04:51:50;98413.72;;;-0.43;100.00
65276;BME280;51875;49.994;14.052;2023-04-07T04:53:06;98410.28;;;-0.45;100.00
65276;BME280;51875;49.994;14.052;2023-04-07T04:54:21;98410.59;;;-0.24;100.00
65276;BME280;51875;49.994;14.052;2023-04-07T04:55:37;98417.25;;;-0.37;100.00
65276;BME280;51875;49.994;14.052;2023-04-07T04:56:55;98418.44;;;-0.15;100.00
65276;BME280;51875;49.994;14.052;2023-04-07T04:58:11;98412.59;;;-0.03;100.00
65276;BME280;51875;49.994;14.052;2023-04-07T04:59:27;98420.31;;;-0.03;100.00
65276;BME280;51875;49.994;14.052;2023-04-07T05:00:42;98422.19;;;0.07;100.00
65276;BME280;51875;49.994;14.052;2023-04-07T05:01:58;98422.06;;;-0.02;100.00
65276;BME280;51875;49.994;14.052;2023-04-07T05:03:14;98417.13;;;0.13;99.77
65276;BME280;51875;49.994;14.052;2023-04-07T05:04:29;98423.19;;;0.16;99.64
65276;BME280;51875;49.994;14.052;2023-04-07T05:05:46;98424.97;;;0.21;99.68
65276;BME280;51875;49.994;14.052;2023-04-07T05:07:03;98426.66;;;0.21;98.31
65276;BME280;51875;49.994;14.052;2023-04-07T05:08:18;98422.44;;;0.24;98.67
65276;BME280;51875;49.994;14.052;2023-04-07T05:09:34;98427.41;;;0.13;100.00
65276;BME280;51875;49.994;14.052;2023-04-07T05:10:49;98430.88;;;0.14;100.00
65276;BME280;51875;49.994;14.052;2023-04-07T05:12:05;98421.44;;;0.16;100.00
65276;BME280;51875;49.994;14.052;2023-04-07T05:13:21;98421.44;;;0.15;99.88
65276;BME280;51875;49.994;14.052;2023-04-07T05:14:37;98419.84;;;0.26;99.63
65276;BME280;51875;49.994;14.052;2023-04-07T05:15:52;98423.22;;;0.19;100.00
65276;BME280;51875;49.994;14.052;2023-04-07T05:17:08;98424.88;;;0.15;100.00
65276;BME280;51875;49.994;14.052;2023-04-07T05:18:24;98424.09;;;0.21;100.00
65276;BME280;51875;49.994;14.052;2023-04-07T05:19:40;98417.28;;;0.24;99.78
65276;BME280;51875;49.994;14.052;2023-04-07T05:20:55;98415.63;;;0.30;99.48
65276;BME280;51875;49.994;14.052;2023-04-07T05:22:11;98416.41;;;0.24;99.74
65276;BME280;51875;49.994;14.052;2023-04-07T05:23:27;98412.03;;;0.17;100.00
65276;BME280;51875;49.994;14.052;2023-04-07T05:24:42;98414.53;;;0.13;100.00
65276;BME280;51875;49.994;14.052;2023-04-07T05:25:58;98412.84;;;0.14;99.63
65276;BME280;51875;49.994;14.052;2023-04-07T05:27:13;98412.97;;;0.25;100.00
65276;BME280;51875;49.994;14.052;2023-04-07T05:28:29;98406.94;;;0.21;100.00
65276;BME280;51875;49.994;14.052;2023-04-07T05:29:44;98415.63;;;0.28;100.00
65276;BME280;51875;49.994;14.052;2023-04-07T05:31:00;98409.72;;;0.37;99.88
65276;BME280;51875;49.994;14.052;2023-04-07T05:32:18;98408.84;;;0.36;99.99
65276;BME280;51875;49.994;14.052;2023-04-07T05:33:34;98406.81;;;0.12;100.00
65276;BME280;51875;49.994;14.052;2023-04-07T05:34:49;98409.66;;;0.32;100.00
65276;BME280;51875;49.994;14.052;2023-04-07T05:36:05;98402.84;;;0.37;98.25
65276;BME280;51875;49.994;14.052;2023-04-07T05:37:21;98407.19;;;0.43;97.52
65276;BME280;51875;49.994;14.052;2023-04-07T05:38:37;98404.72;;;0.49;96.77
65276;BME280;51875;49.994;14.052;2023-04-07T05:39:52;98405.31;;;0.30;99.41
65276;BME280;51875;49.994;14.052;2023-04-07T05:41:08;98400.25;;;0.36;100.00
65276;BME280;51875;49.994;14.052;2023-04-07T05:42:24;98403.81;;;0.46;99.59
65276;BME280;51875;49.994;14.052;2023-04-07T05:43:40;98397.69;;;0.36;100.00
65276;BME280;51875;49.994;14.052;2023-04-07T05:44:56;98402.97;;;0.47;100.00
65276;BME280;51875;49.994;14.052;2023-04-07T05:46:15;98403.88;;;0.50;97.93
65276;BME280;51875;49.994;14.052;2023-04-07T05:47:31;98404.84;;;0.60;96.27
65276;BME280;51875;49.994;14.052;2023-04-07T05:48:46;98403.00;;;0.53;96.99
65276;BME280;51875;49.994;14.052;2023-04-07T05:50:02;98407.22;;;0.45;99.36
65276;BME280;51875;49.994;14.052;2023-04-07T05:51:18;98397.91;;;0.58;99.49
65276;BME280;51875;49.994;14.052;2023-04-07T05:52:33;98403.97;;;0.63;97.49
65276;BME280;51875;49.994;14.052;2023-04-07T05:53:49;98403.09;;;0.59;94.94
65276;BME280;51875;49.994;14.052;2023-04-07T05:55:05;98406.66;;;0.69;92.46
65276;BME280;51875;49.994;14.052;2023-04-07T05:56:21;98409.25;;;0.72;93.02
65276;BME280;51875;49.994;14.052;2023-04-07T05:57:36;98412.03;;;0.92;90.41
65276;BME280;51875;49.994;14.052;2023-04-07T05:58:55;98411.38;;;1.12;86.59
65276;BME280;51875;49.994;14.052;2023-04-07T06:00:11;98408.69;;;1.01;89.57
65276;BME280;51875;49.994;14.052;2023-04-07T06:01:28;98408.81;;;1.12;88.28
65276;BME280;51875;49.994;14.052;2023-04-07T06:02:44;98414.00;;;1.15;88.44
65276;BME280;51875;49.994;14.052;2023-04-07T06:03:59;98410.53;;;1.13;88.54
65276;BME280;51875;49.994;14.052;2023-04-07T06:05:17;98414.81;;;1.12;89.28
65276;BME280;51875;49.994;14.052;2023-04-07T06:06:33;98404.53;;;1.16;90.00
65276;BME280;51875;49.994;14.052;2023-04-07T06:07:48;98407.06;;;1.12;89.75
65276;BME280;51875;49.994;14.052;2023-04-07T06:09:04;98398.56;;;1.21;87.38
65276;BME280;51875;49.994;14.052;2023-04-07T06:10:20;98397.69;;;1.22;86.35
65276;BME280;51875;49.994;14.052;2023-04-07T06:11:35;98404.66;;;1.30;87.01
65276;BME280;51875;49.994;14.052;2023-04-07T06:12:51;98396.94;;;1.30;87.79
65276;BME280;51875;49.994;14.052;2023-04-07T06:14:06;98404.53;;;1.19;89.75
65276;BME280;51875;49.994;14.052;2023-04-07T06:15:22;98407.25;;;1.33;88.84
65276;BME280;51875;49.994;14.052;2023-04-07T06:16:38;98401.25;;;1.34;89.47
65276;BME280;51875;49.994;14.052;2023-04-07T06:17:53;98407.38;;;1.45;87.15
65276;BME280;51875;49.994;14.052;2023-04-07T06:19:09;98407.25;;;1.33;87.62
65276;BME280;51875;49.994;14.052;2023-04-07T06:20:25;98402.88;;;1.24;89.33
65276;BME280;51875;49.994;14.052;2023-04-07T06:21:42;98402.94;;;1.29;89.94
65276;BME280;51875;49.994;14.052;2023-04-07T06:22:57;98410.81;;;1.47;90.73
65276;BME280;51875;49.994;14.052;2023-04-07T06:24:13;98402.41;;;1.70;85.75
65276;BME280;51875;49.994;14.052;2023-04-07T06:25:28;98404.94;;;1.65;86.89
65276;BME280;51875;49.994;14.052;2023-04-07T06:26:44;98406.53;;;1.49;86.84
65276;BME280;51875;49.994;14.052;2023-04-07T06:28:01;98405.78;;;1.63;86.91
65276;BME280;51875;49.994;14.052;2023-04-07T06:29:16;98403.72;;;1.21;89.88
65276;BME280;51875;49.994;14.052;2023-04-07T06:30:33;98405.75;;;1.60;89.00
65276;BME280;51875;49.994;14.052;2023-04-07T06:31:49;98401.34;;;1.43;88.81
65276;BME280;51875;49.994;14.052;2023-04-07T06:33:04;98404.81;;;1.51;89.33
65276;BME280;51875;49.994;14.052;2023-04-07T06:34:20;98400.53;;;1.53;89.77
65276;BME280;51875;49.994;14.052;2023-04-07T06:35:37;98400.47;;;1.41;89.34
65276;BME280;51875;49.994;14.052;2023-04-07T06:36:53;98403.03;;;1.39;91.98
65276;BME280;51875;49.994;14.052;2023-04-07T06:38:09;98397.97;;;1.55;96.73
65276;BME280;51875;49.994;14.052;2023-04-07T06:39:26;98398.53;;;1.18;94.71
65276;BME280;51875;49.994;14.052;2023-04-07T06:40:41;98402.03;;;1.22;100.00
65276;BME280;51875;49.994;14.052;2023-04-07T06:41:57;98398.72;;;1.41;95.96
65276;BME280;51875;49.994;14.052;2023-04-07T06:43:12;98394.44;;;1.44;92.44
65276;BME280;51875;49.994;14.052;2023-04-07T06:44:28;98392.97;;;1.75;90.05
65276;BME280;51875;49.994;14.052;2023-04-07T06:45:44;98385.38;;;2.06;89.17